Latest Weather Observations for Clare

IDS60801

Issued at 10:35 pm CDT Tuesday 21 October 2014 (issued every 30 minutes, with the page automatically refreshed every 10 minutes)

About weather observations | Map of weather stations | Latest weather observations for SA | Other Formats
Station Details ID: 021131 Name: CLARE HIGH SCHOOL Lat: -33.82 Lon: 138.59 Height: 395.0 m
Data from the previous 72 hours. | See also: Recent months at Clare
Date/Time
CDT
Temp
°C
App
Temp
°C
Dew
Point
Rel
Hum
%
Delta-T
°C
Wind Press
QNH
hPa
Press
MSL
hPa
Rain
since 9 am
mm
Dir
 
Spd
km/h
Gust
km/h
Spd
kts
Gust
kts
21/10:30pm 30.5 24.9 -3.3 11 15.6 N 17 24 9 13 1019.4 - 0.0
21/10:00pm 28.3 24.5 -0.8 15 13.8 ENE 9 15 5 8 1019.4 - 0.0
21/09:30pm 30.7 27.0 -4.4 10 15.9 E 6 13 3 7 1019.7 - 0.0
21/09:07pm 30.5 22.4 -3.3 11 15.6 N 30 67 16 36 1020.1 - 0.0
21/09:00pm 27.6 24.4 -0.5 16 13.3 ENE 6 20 3 11 1019.6 1019.2 0.0
21/08:30pm 28.1 24.8 -0.1 16 13.5 E 7 11 4 6 1019.1 - 0.0
21/08:00pm 26.3 23.6 2.9 22 11.7 N 6 9 3 5 1019.0 - 0.0
21/07:30pm 28.5 25.3 -0.6 15 13.9 S 6 7 3 4 1018.9 - 0.0
21/07:00pm 30.2 27.2 0.7 15 14.5 W 6 7 3 4 1018.7 - 0.0
21/06:30pm 32.4 29.2 -0.6 12 16.2 W 6 9 3 5 1018.4 - 0.0
21/06:00pm 31.8 28.0 -3.5 10 16.4 W 7 11 4 6 1018.3 1017.8 0.0
21/05:30pm 33.1 28.0 -5.5 8 17.5 NW 13 22 7 12 1018.3 - 0.0
21/05:00pm 33.6 29.4 -3.6 9 17.5 W 9 15 5 8 1018.4 - 0.0
21/04:30pm 33.5 28.9 -3.7 9 17.4 NNW 11 22 6 12 1018.4 - 0.0
21/04:00pm 34.6 30.0 -4.4 8 18.2 N 11 20 6 11 1018.6 - 0.0
21/03:30pm 35.2 30.2 -4.0 8 18.5 NW 13 22 7 12 1018.8 - 0.0
21/03:00pm 35.2 30.6 -4.0 8 18.5 NNE 11 26 6 14 1019.2 1018.8 0.0
21/02:30pm 33.8 28.1 -3.5 9 17.6 NW 17 28 9 15 1019.6 - 0.0
21/02:00pm 34.4 29.4 -4.6 8 18.1 NW 13 20 7 11 1020.0 - 0.0
21/01:30pm 33.1 27.0 -4.0 9 17.2 NW 19 28 10 15 1020.4 - 0.0
21/01:00pm 32.9 26.6 -4.1 9 17.1 N 20 35 11 19 1020.8 - 0.0
21/12:30pm 33.9 27.7 -3.4 9 17.6 N 20 32 11 17 1021.1 - 0.0
21/12:00pm 32.5 27.4 -1.7 11 16.4 NNE 15 26 8 14 1021.3 1020.9 0.0
21/11:30am 31.6 26.1 0.9 14 15.3 NNE 19 28 10 15 1021.6 - 0.0
21/11:00am 31.7 25.9 -1.2 12 15.9 N 19 33 10 18 1021.8 - 0.0
21/10:30am 30.3 24.8 1.7 16 14.4 NE 20 39 11 21 1022.1 - 0.0
21/10:00am 29.3 24.1 0.0 15 14.2 NNE 17 32 9 17 1022.0 - 0.0
21/09:30am 27.3 22.8 2.4 20 12.4 NE 15 22 8 12 1022.0 - 0.0
21/09:00am 25.7 21.5 1.8 21 11.6 NE 13 24 7 13 1021.9 1021.5 0.0
21/08:30am 23.9 21.0 2.7 25 10.4 ENE 7 13 4 7 1021.9 - 0.0
21/08:00am 23.3 19.3 2.7 26 10.0 NE 13 20 7 11 1021.9 - 0.0
21/07:30am 20.8 17.1 2.6 30 8.7 E 11 19 6 10 1021.7 - 0.0
21/07:00am 20.4 17.4 2.3 30 8.6 NE 7 22 4 12 1021.6 - 0.0
21/06:30am 20.3 16.6 2.6 31 8.4 ENE 11 19 6 10 1021.3 - 0.0
21/06:00am 20.3 16.3 2.6 31 8.4 ENE 13 28 7 15 1021.0 1020.5 0.0
21/05:30am 20.4 16.3 2.3 30 8.6 ENE 13 20 7 11 1020.8 - 0.0
21/05:00am 20.3 16.6 2.6 31 8.4 ENE 11 20 6 11 1020.8 - 0.0
21/04:30am 20.5 16.5 2.8 31 8.5 ENE 13 24 7 13 1020.8 - 0.0
21/04:00am 21.1 16.7 2.9 30 8.8 ENE 15 24 8 13 1020.7 - 0.0
21/03:30am 21.4 16.6 2.6 29 9.0 E 17 28 9 15 1020.7 - 0.0
21/03:00am 21.1 16.4 2.9 30 8.7 E 17 28 9 15 1021.0 1020.5 0.0
21/02:30am 21.3 16.6 3.0 30 8.8 E 17 28 9 15 1021.3 - 0.0
21/02:00am 21.5 16.8 3.2 30 8.9 E 17 32 9 17 1021.5 - 0.0
21/01:30am 21.4 16.8 3.6 31 8.7 E 17 28 9 15 1021.8 - 0.0
21/01:00am 21.9 17.3 3.6 30 9.0 E 17 28 9 15 1022.1 - 0.0
21/12:30am 22.2 17.2 3.8 30 9.1 E 19 28 10 15 1022.5 - 0.0
21/12:00am 22.4 17.3 4.0 30 9.1 E 20 32 11 17 1022.6 1022.2 0.0
 
Date/Time
CDT
Temp
°C
App
Temp
°C
Dew
Point
Rel
Hum
%
Delta-T
°C
Wind Press
QNH
hPa
Press
MSL
hPa
Rain
since 9 am
mm
Dir
 
Spd
km/h
Gust
km/h
Spd
kts
Gust
kts
20/11:30pm 22.4 17.3 4.0 30 9.1 E 20 30 11 16 1022.8 - 0.0
20/11:00pm 22.4 17.6 4.5 31 9.0 E 19 28 10 15 1022.8 - 0.0
20/10:30pm 22.7 18.2 4.2 30 9.2 E 17 30 9 16 1022.8 - 0.0
20/09:30pm 24.2 19.8 2.9 25 10.5 E 15 28 8 15 1022.5 - 0.0
20/09:00pm 24.1 20.2 3.4 26 10.2 E 13 24 7 13 1022.4 1022.0 0.0
20/08:30pm 24.8 20.4 2.9 24 10.8 E 15 22 8 12 1022.1 - 0.0
20/08:00pm 25.4 21.3 2.2 22 11.4 E 13 19 7 10 1021.7 - 0.0
20/07:30pm 26.1 22.0 2.1 21 11.8 E 13 20 7 11 1021.5 - 0.0
20/07:00pm 27.0 22.2 2.8 21 12.1 ENE 17 22 9 12 1021.2 - 0.0
20/06:30pm 28.0 23.1 2.2 19 12.9 ENE 17 24 9 13 1021.0 - 0.0
20/06:00pm 29.1 24.3 2.4 18 13.4 E 17 30 9 16 1020.8 1020.3 0.0
20/05:30pm 29.7 24.4 2.1 17 13.9 ENE 19 30 10 16 1020.9 - 0.0
20/05:00pm 30.2 25.2 1.6 16 14.3 E 17 32 9 17 1020.8 - 0.0
20/04:30pm 30.2 24.5 0.7 15 14.5 E 20 33 11 18 1020.9 - 0.0
20/04:00pm 30.5 25.2 1.9 16 14.4 E 19 32 10 17 1021.1 - 0.0
20/03:30pm 31.0 26.1 2.3 16 14.6 ENE 17 26 9 14 1021.3 - 0.0
20/03:00pm 30.9 26.0 2.2 16 14.5 E 17 30 9 16 1021.6 1021.2 0.0
20/02:30pm 30.5 25.7 2.7 17 14.2 E 17 24 9 13 1022.2 - 0.0
20/02:00pm 30.5 25.6 1.9 16 14.4 ENE 17 26 9 14 1022.7 - 0.0
20/01:30pm 30.4 26.8 4.9 20 13.5 ENE 13 24 7 13 1023.1 - 0.0
20/01:00pm 29.2 25.0 3.9 20 13.1 ENE 15 26 8 14 1023.4 - 0.0
20/12:30pm 28.3 24.4 5.2 23 12.2 ENE 15 24 8 13 1023.9 - 0.0
20/12:00pm 26.5 22.6 5.5 26 10.9 ENE 15 22 8 12 1024.2 1023.8 0.0
20/11:30am 25.2 21.2 4.9 27 10.4 E 15 28 8 15 1024.6 - 0.0
20/11:00am 23.0 19.4 8.3 39 7.9 ENE 17 28 9 15 1024.9 - 0.0
20/10:30am 20.9 17.8 8.9 46 6.5 E 15 24 8 13 1025.1 - 0.0
20/10:00am 19.7 17.5 9.3 51 5.6 E 11 19 6 10 1025.1 - 0.0
20/09:30am 18.1 14.8 9.7 58 4.5 ENE 17 24 9 13 1025.0 - 0.0
20/09:00am 16.6 13.7 9.5 63 3.8 E 15 24 8 13 1025.0 1024.6 0.0
20/08:30am 15.3 12.7 9.4 68 3.1 ENE 13 20 7 11 1024.9 - 0.0
20/08:00am 14.6 12.4 9.2 70 2.8 ENE 11 17 6 9 1024.7 - 0.0
20/07:30am 13.8 12.0 9.3 74 2.3 E 9 17 5 9 1024.5 - 0.0
20/07:00am 13.0 10.4 9.3 78 1.9 E 13 20 7 11 1024.2 - 0.0
20/06:30am 13.3 11.4 9.0 75 2.2 E 9 17 5 9 1023.9 - 0.0
20/06:00am 13.6 12.0 8.7 72 2.5 E 7 15 4 8 1023.8 1023.4 0.0
20/05:30am 13.7 11.2 8.1 69 2.8 E 11 19 6 10 1023.5 - 0.0
20/05:00am 13.9 11.4 8.1 68 2.9 E 11 20 6 11 1023.3 - 0.0
20/04:30am 14.6 11.6 7.9 64 3.4 E 13 22 7 12 1023.1 - 0.0
20/04:00am 14.9 12.2 7.5 61 3.7 E 11 20 6 11 1023.1 - 0.0
20/03:30am 15.5 13.2 7.3 58 4.1 ESE 9 17 5 9 1023.0 - 0.0
20/03:00am 15.9 12.8 7.4 57 4.3 E 13 19 7 10 1023.1 1022.7 0.0
20/02:30am 15.9 12.6 8.2 60 4.0 E 15 28 8 15 1023.1 - 0.0
20/02:00am 16.6 13.5 7.3 54 4.7 E 13 24 7 13 1023.4 - 0.0
20/01:30am 16.4 13.6 6.8 53 4.8 ESE 11 22 6 12 1023.5 - 0.0
20/01:00am 16.5 12.9 6.6 52 5.0 ESE 15 24 8 13 1023.6 - 0.0
20/12:30am 16.4 12.9 5.4 48 5.4 ESE 13 32 7 17 1023.7 - 0.0
20/12:00am 15.9 13.1 6.9 55 4.5 ESE 11 20 6 11 1023.7 1023.3 0.0
 
Date/Time
CDT
Temp
°C
App
Temp
°C
Dew
Point
Rel
Hum
%
Delta-T
°C
Wind Press
QNH
hPa
Press
MSL
hPa
Rain
since 9 am
mm
Dir
 
Spd
km/h
Gust
km/h
Spd
kts
Gust
kts
19/11:30pm 15.9 13.5 8.6 62 3.8 E 11 17 6 9 1023.6 - 0.0
19/11:00pm 16.7 13.4 7.9 56 4.5 E 15 22 8 12 1023.5 - 0.0
19/10:30pm 18.7 15.9 2.9 35 7.5 E 7 13 4 7 1023.3 - 0.0
19/10:00pm 19.8 16.5 2.6 32 8.2 SE 9 17 5 9 1023.0 - 0.0
19/09:30pm 19.7 16.5 3.0 33 8.0 SE 9 13 5 7 1022.8 - 0.0
19/09:00pm 20.5 17.0 1.4 28 8.9 SSE 9 17 5 9 1022.6 1022.2 0.0
19/08:30pm 19.9 18.0 0.4 27 8.9 CALM 0 11 0 6 1022.5 - 0.0
19/08:00pm 22.0 18.7 -0.1 23 10.1 SSW 7 11 4 6 1022.3 - 0.0
19/07:30pm 24.3 20.1 -0.8 19 11.5 S 11 15 6 8 1022.0 - 0.0
19/07:00pm 26.6 21.9 -2.1 15 13.1 S 13 20 7 11 1021.6 - 0.0
19/06:30pm 28.5 23.3 -2.6 13 14.3 SW 15 32 8 17 1021.4 - 0.0
19/06:00pm 28.7 24.7 -5.9 10 15.0 WSW 7 11 4 6 1020.9 1020.4 0.0
19/05:30pm 30.6 25.5 -9.1 7 16.6 WSW 11 17 6 9 1020.8 - 0.0
19/05:00pm 30.7 25.3 -9.0 7 16.6 W 13 22 7 12 1020.8 - 0.0
19/04:30pm 30.5 25.0 -9.1 7 16.5 WNW 13 24 7 13 1020.8 - 0.0
19/04:00pm 31.0 25.2 -8.8 7 16.8 WNW 15 24 8 13 1020.9 - 0.0
19/03:30pm 30.3 24.2 -7.6 8 16.2 WNW 17 26 9 14 1020.9 - 0.0
19/03:00pm 30.0 23.9 -7.8 8 16.0 WNW 17 28 9 15 1021.1 1020.6 0.0
19/02:30pm 30.4 23.8 -9.2 7 16.5 NW 19 28 10 15 1021.3 - 0.0
19/02:00pm 30.0 24.3 -7.8 8 16.1 WNW 15 26 8 14 1021.5 - 0.0
19/01:30pm 29.7 23.2 -8.0 8 15.9 WNW 19 32 10 17 1021.9 - 0.0
19/01:00pm 29.9 23.7 -5.0 10 15.6 WNW 19 35 10 19 1022.0 - 0.0
19/12:30pm 30.1 24.5 -6.2 9 15.9 WNW 15 24 8 13 1022.0 - 0.0
19/12:00pm 29.1 22.6 -5.6 10 15.2 NNW 20 32 11 17 1022.4 1022.0 0.0
19/11:30am 29.3 22.9 -5.4 10 15.3 NNW 20 30 11 16 1022.6 - 0.0
19/11:00am 28.3 21.8 -6.2 10 14.9 WNW 20 32 11 17 1022.7 - 0.0
19/10:30am 27.9 21.5 -5.2 11 14.5 NNW 20 30 11 16 1022.7 - 0.0
19/10:00am 26.1 22.4 0.0 18 12.4 NNW 9 15 5 8 1022.7 - 0.0
19/09:30am 23.0 19.9 1.4 24 10.3 NNW 7 13 4 7 1022.6 - 0.0
19/09:00am 20.9 18.3 0.7 26 9.3 N 4 9 2 5 1022.6 1022.2 0.0
19/08:30am 18.6 15.8 -0.7 27 8.5 NW 4 7 2 4 1022.5 - 0.0
19/08:00am 17.3 14.4 -1.4 28 8.0 N 4 7 2 4 1022.2 - 0.0
19/07:30am 16.2 14.3 0.3 34 7.0 CALM 0 0 0 0 1021.8 - 0.0
19/07:00am 15.0 12.9 -0.7 34 6.7 CALM 0 0 0 0 1021.4 - 0.0
19/06:30am 16.4 12.9 -1.7 29 7.6 ENE 7 9 4 5 1020.9 - 0.0
19/06:00am 14.5 12.5 -0.4 36 6.3 CALM 0 6 0 3 1020.4 1020.0 0.0
19/05:30am 14.0 11.1 -1.2 35 6.3 ENE 4 7 2 4 1020.2 - 0.0
19/05:00am 15.2 13.0 -1.8 31 7.1 CALM 0 0 0 0 1020.3 - 0.0
19/04:30am 16.2 13.6 -1.8 29 7.6 N 2 6 1 3 1020.3 - 0.0
19/04:00am 16.1 12.8 -1.5 30 7.4 NNE 6 11 3 6 1020.4 - 0.0
19/03:30am 15.0 11.5 -1.1 33 6.8 ENE 7 11 4 6 1020.6 - 0.0
19/03:00am 14.1 11.7 -0.4 37 6.1 E 2 7 1 4 1020.8 1020.3 0.0
19/02:30am 14.5 12.2 0.7 39 6.0 E 2 7 1 4 1021.0 - 0.0
19/02:00am 16.9 13.5 -0.8 30 7.6 NE 7 11 4 6 1021.1 - 0.0
19/01:30am 15.6 12.6 1.0 37 6.5 NE 6 7 3 4 1021.3 - 0.0
19/01:00am 18.5 14.6 -1.3 26 8.6 NE 9 15 5 8 1021.5 - 0.0
19/12:30am 14.7 12.2 1.6 41 5.8 N 4 9 2 5 1021.8 - 0.0
19/12:00am 13.1 11.4 1.8 46 5.0 CALM 0 0 0 0 1022.1 1021.7 0.0
 
Date/Time
CDT
Temp
°C
App
Temp
°C
Dew
Point
Rel
Hum
%
Delta-T
°C
Wind Press
QNH
hPa
Press
MSL
hPa
Rain
since 9 am
mm
Dir
 
Spd
km/h
Gust
km/h
Spd
kts
Gust
kts
18/11:30pm 13.1 11.5 2.4 48 4.8 CALM 0 0 0 0 1022.1 - 0.0
18/11:00pm 13.8 12.3 3.0 48 4.9 CALM 0 0 0 0 1022.1 - 0.0

Other Formats:

Comma delimited format used in spreadsheet applications
http://www.bom.gov.au/fwo/IDS60801/IDS60801.95667.axf

JavaScript Object Notation format (JSON) in row-major order
http://www.bom.gov.au/fwo/IDS60801/IDS60801.95667.json